createdAt,value
2022-10-17T00:01:01.530Z,1019.37
2022-10-17T00:11:01.532Z,1019.64
2022-10-17T00:16:01.575Z,1019.54
2022-10-17T00:26:01.545Z,1019.52
2022-10-17T00:36:01.962Z,1019.40
2022-10-17T00:41:01.960Z,1019.40
2022-10-17T00:56:01.991Z,1019.11
2022-10-17T01:11:01.535Z,1019.01
2022-10-17T01:26:01.853Z,1019.26
2022-10-17T01:41:01.696Z,1019.29
2022-10-17T01:46:02.017Z,1019.30
2022-10-17T01:56:01.640Z,1019.35
2022-10-17T02:01:01.766Z,1019.35
2022-10-17T02:16:01.693Z,1019.07
2022-10-17T02:31:01.519Z,1018.80
2022-10-17T02:41:01.660Z,1018.86
2022-10-17T02:51:01.722Z,1018.88
2022-10-17T02:56:02.052Z,1018.82
2022-10-17T03:01:02.124Z,1018.82
2022-10-17T03:06:06.593Z,1018.76
2022-10-17T03:11:01.720Z,1018.76
2022-10-17T03:16:01.829Z,1018.86
2022-10-17T03:26:01.595Z,1018.88
2022-10-17T03:31:01.895Z,1018.88
2022-10-17T03:36:01.569Z,1018.86
2022-10-17T03:41:01.904Z,1018.86
2022-10-17T03:46:01.615Z,1018.73
2022-10-17T03:57:01.733Z,1018.71
2022-10-17T04:02:01.777Z,1018.71
2022-10-17T04:07:02.866Z,1018.68
2022-10-17T04:12:01.632Z,1018.68
2022-10-17T04:17:01.431Z,1018.60
2022-10-17T04:22:01.543Z,1018.60
2022-10-17T04:27:01.526Z,1018.43
2022-10-17T04:32:01.731Z,1018.43
2022-10-17T04:37:01.520Z,1018.36
2022-10-17T04:42:01.564Z,1018.36
2022-10-17T04:47:01.527Z,1018.21
2022-10-17T04:57:01.817Z,1017.94
2022-10-17T05:07:01.816Z,1017.89
2022-10-17T05:17:01.782Z,1018.03
2022-10-17T05:48:01.532Z,1017.70
2022-10-17T06:03:01.537Z,1017.60
2022-10-17T06:08:02.371Z,1017.34
2022-10-17T06:13:01.479Z,1017.34
2022-10-17T06:18:01.460Z,1017.27
2022-10-17T06:33:01.557Z,1017.32
2022-10-17T06:38:01.443Z,1017.32
2022-10-17T06:48:01.752Z,1017.33
2022-10-17T06:58:01.589Z,1017.28
2022-10-17T07:03:01.510Z,1017.28
2022-10-17T07:08:01.461Z,1017.40
2022-10-17T07:18:01.801Z,1017.50
2022-10-17T07:23:01.710Z,1017.50
2022-10-17T07:28:01.452Z,1017.35
2022-10-17T07:33:01.440Z,1017.35
2022-10-17T07:38:01.534Z,1017.30
2022-10-17T07:43:01.822Z,1017.30
2022-10-17T07:48:01.741Z,1017.15
2022-10-17T07:54:01.890Z,1017.15
2022-10-17T07:59:06.823Z,1017.05
2022-10-17T08:09:01.254Z,1016.87
2022-10-17T08:24:01.385Z,1016.94
2022-10-17T08:39:01.290Z,1016.80
2022-10-17T08:49:01.584Z,1016.70
2022-10-17T08:54:01.240Z,1016.70
2022-10-17T08:59:01.431Z,1016.42
2022-10-17T09:04:01.646Z,1016.42
2022-10-17T09:09:06.556Z,1016.02
2022-10-17T09:14:01.776Z,1016.02
2022-10-17T09:24:15.682Z,1016.09
2022-10-17T09:34:01.363Z,1016.08
2022-10-17T09:44:01.570Z,1016.21
2022-10-17T09:54:01.709Z,1016.05
2022-10-17T09:59:01.615Z,1016.05
2022-10-17T10:04:01.839Z,1016.05
2022-10-17T10:09:01.743Z,1015.95
2022-10-17T10:14:01.704Z,1015.95
2022-10-17T10:19:08.470Z,1016.14
2022-10-17T10:24:01.898Z,1016.14
2022-10-17T10:29:02.337Z,1016.05
2022-10-17T10:34:01.675Z,1016.05
2022-10-17T10:39:04.845Z,1016.12
2022-10-17T10:44:01.576Z,1016.12
2022-10-17T10:54:01.840Z,1016.00
2022-10-17T11:04:01.844Z,1016.01
2022-10-17T11:09:01.805Z,1016.06
2022-10-17T11:14:01.835Z,1016.06
2022-10-17T11:19:01.701Z,1016.20
2022-10-17T11:24:06.955Z,1016.20
2022-10-17T11:29:01.904Z,1016.34
2022-10-17T11:34:02.029Z,1016.34
2022-10-17T11:49:01.855Z,1016.66
2022-10-17T11:59:01.637Z,1016.92
2022-10-17T12:14:06.365Z,1016.72
2022-10-17T12:29:16.458Z,1016.39
2022-10-17T12:39:01.571Z,1016.41
2022-10-17T12:54:01.367Z,1016.63
2022-10-17T13:30:01.885Z,1016.79
2022-10-17T13:45:01.315Z,1017.29
2022-10-17T13:55:01.138Z,1017.02
2022-10-17T14:00:02.595Z,1017.01
2022-10-17T14:50:01.659Z,1018.40
2022-10-17T15:00:02.326Z,1018.46
2022-10-17T15:05:01.536Z,1018.46
2022-10-17T15:15:01.307Z,1018.45
2022-10-17T15:25:01.213Z,1018.52
2022-10-17T15:30:01.331Z,1018.52
2022-10-17T15:35:01.308Z,1018.52
2022-10-17T15:45:01.362Z,1018.58
2022-10-17T15:55:05.696Z,1018.81
2022-10-17T16:00:02.929Z,1018.93
2022-10-17T16:05:01.291Z,1018.93
2022-10-17T16:10:01.320Z,1019.01
2022-10-17T16:15:01.675Z,1019.01
2022-10-17T16:20:01.320Z,1019.25
2022-10-17T16:30:01.236Z,1019.30
2022-10-17T16:45:01.307Z,1019.44
2022-10-17T17:00:02.965Z,1019.46
2022-10-17T17:15:01.310Z,1019.57
2022-10-17T17:30:01.017Z,1019.76
2022-10-17T17:45:01.634Z,1019.82
2022-10-17T18:00:06.879Z,1019.95
2022-10-17T18:15:01.479Z,1019.93
2022-10-17T18:30:01.649Z,1020.29
2022-10-17T18:40:01.389Z,1020.38
2022-10-17T18:45:01.899Z,1020.38
2022-10-17T19:00:02.758Z,1020.54
2022-10-17T19:15:01.426Z,1020.77
2022-10-17T19:30:02.658Z,1020.93
2022-10-17T19:45:01.520Z,1020.94
2022-10-17T20:00:02.578Z,1021.17
2022-10-17T20:15:01.811Z,1021.34
2022-10-17T20:25:01.533Z,1021.56
2022-10-17T20:30:02.317Z,1021.63
2022-10-17T20:45:01.474Z,1021.73
2022-10-17T21:00:03.795Z,1021.99
2022-10-17T21:15:01.561Z,1021.97
2022-10-17T21:30:01.644Z,1021.99
2022-10-17T21:40:01.396Z,1022.04
2022-10-17T21:45:04.752Z,1022.04
2022-10-17T21:50:06.427Z,1022.18
2022-10-17T21:55:01.430Z,1022.18
2022-10-17T22:00:02.265Z,1022.36
2022-10-17T22:15:02.222Z,1022.33
2022-10-17T22:25:01.783Z,1022.47
2022-10-17T22:30:07.444Z,1022.56
2022-10-17T22:40:01.768Z,1022.40
2022-10-17T22:45:06.481Z,1022.40
2022-10-17T22:50:01.462Z,1022.30
2022-10-17T23:00:03.900Z,1022.27
2022-10-17T23:10:01.564Z,1022.26
2022-10-17T23:15:01.545Z,1022.26
2022-10-17T23:30:01.809Z,1022.31
2022-10-17T23:45:01.536Z,1022.44
